CheckWX is a tool to help pilots better visualize weather data.  It is not intended as a substitute for an official pre-flight weather briefing.

07:50:55 UTC

KJER METAR
Jerome County Airport
Jerome, Idaho, USA
Current

58 mins ago

KJER 290653Z AUTO 12009KT 10SM CLR 22/11 A3004 RMK AO2 SLP130 T02170111 403110100
Observed
May-29 @ 06:53 UTC
Wind
  • 120° at 9 KTS
Visibility
Flight Rules
VFR
Cloud Levels
  • Clear skies
Dewpoint
11°C / 52°F
Humidity
50%
Altimeter
30.04" Hg
Pressure
1017.32 hPa
Previous

2 hours ago

KJER 290553Z AUTO 12009KT 10SM CLR 22/10 A3004 RMK AO2 SLP131 T02170100 10311 20206 58000
Observed
May-29 @ 05:53 UTC
Wind
  • 120° at 9 KTS
Visibility
Flight Rules
VFR
Cloud Levels
  • Clear skies
Temperature
22°C / 72°F
Dewpoint
10°C / 50°F
Humidity
47%
Altimeter
30.04" Hg
Pressure
1017.32 hPa
Previous

3 hours ago

KJER 290453Z AUTO 12009KT 10SM CLR 23/07 A3005 RMK AO2 SLP134 T02280072
Observed
May-29 @ 04:53 UTC
Wind
  • 120° at 9 KTS
Visibility
Flight Rules
VFR
Cloud Levels
  • Clear skies
Temperature
23°C / 73°F
Dewpoint
C / 45°F
Humidity
36%
Altimeter
30.05" Hg
Pressure
1017.62 hPa